Time;durP1;ratioP1;P1;durP2;ratioP2;P2;SDS_P1;SDS_P2;PMS_P1;PMS_P2;Temp;Humidity;BMP_temperature;BMP_pressure;BME280_temperature;BME280_humidity;BME280_pressure;Samples;Min_cycle;Max_cycle;Signal;HPM_P1;HPM_P2
2023/11/26 00:00:58;;;;;;;4.80;2.70;;;;;;;2.20;80.45;98283.44;4981186;28;102601;-66
2023/11/26 00:03:26;;;;;;;6.22;2.90;;;;;;;2.14;80.47;98296.03;4980049;28;102639;-66
2023/11/26 00:05:55;;;;;;;6.22;3.47;;;;;;;2.10;80.33;98294.63;4977095;28;103217;-67
2023/11/26 00:08:23;;;;;;;6.18;3.70;;;;;;;2.16;80.24;98293.28;4966801;28;103236;-67
2023/11/26 00:10:51;;;;;;;6.03;3.50;;;;;;;2.06;80.07;98297.63;4962187;28;102842;-67
2023/11/26 00:13:19;;;;;;;6.70;3.53;;;;;;;2.10;79.87;98288.59;4979752;28;103972;-67
2023/11/26 00:15:47;;;;;;;5.55;3.83;;;;;;;1.93;80.44;98292.56;4986244;28;104400;-66
2023/11/26 00:18:17;;;;;;;10.65;4.07;;;;;;;1.97;80.24;98300.00;4963771;28;103348;-67
2023/11/26 00:20:46;;;;;;;8.18;4.18;;;;;;;1.95;80.32;98295.88;4961004;28;102712;-66
2023/11/26 00:23:14;;;;;;;8.05;4.35;;;;;;;1.96;81.23;98303.56;4977950;28;102683;-67
2023/11/26 00:25:42;;;;;;;9.25;4.80;;;;;;;1.69;82.17;98306.63;4982525;28;103004;-67
2023/11/26 00:28:10;;;;;;;5.88;3.92;;;;;;;1.89;81.82;98307.66;4982945;28;103187;-67
2023/11/26 00:34:46;;;;;;;8.07;4.95;;;;;;;1.82;81.09;98307.31;4983974;28;102641;-66
2023/11/26 00:37:15;;;;;;;9.95;5.15;;;;;;;1.76;81.09;98317.41;4962123;28;103245;-66
2023/11/26 00:39:43;;;;;;;9.60;5.80;;;;;;;1.82;81.04;98322.97;4983720;28;103323;-66
2023/11/26 00:42:12;;;;;;;6.07;4.38;;;;;;;1.82;81.65;98328.19;4977889;28;102659;-67
2023/11/26 00:44:40;;;;;;;7.20;4.57;;;;;;;1.86;80.76;98333.16;4961776;28;104177;-67
2023/11/26 00:47:08;;;;;;;6.97;4.47;;;;;;;1.99;80.78;98336.47;4967077;28;103282;-66
2023/11/26 00:49:38;;;;;;;7.20;4.72;;;;;;;1.86;80.17;98341.84;4960818;28;103297;-66
2023/11/26 00:52:07;;;;;;;8.50;5.25;;;;;;;1.85;80.86;98344.56;4983922;28;102744;-67
2023/11/26 00:54:35;;;;;;;9.80;5.28;;;;;;;1.92;80.92;98350.97;4983494;28;102867;-66
2023/11/26 00:57:03;;;;;;;7.30;5.05;;;;;;;1.99;80.43;98352.13;4965048;28;103232;-67
2023/11/26 00:59:31;;;;;;;7.80;4.15;;;;;;;2.01;80.46;98352.84;4979438;28;103171;-67
2023/11/26 01:02:00;;;;;;;6.75;4.32;;;;;;;2.10;80.27;98348.69;4976495;28;102611;-66
2023/11/26 01:04:28;;;;;;;7.60;5.57;;;;;;;2.03;80.31;98350.97;4985454;28;104037;-67
2023/11/26 01:06:58;;;;;;;9.82;6.05;;;;;;;1.96;81.06;98349.78;4961908;28;103285;-68
2023/11/26 01:09:26;;;;;;;8.65;5.30;;;;;;;2.07;80.37;98357.59;4983001;28;103255;-67
2023/11/26 01:11:54;;;;;;;8.70;5.70;;;;;;;2.10;79.88;98361.75;4959395;28;103287;-66
2023/11/26 01:14:22;;;;;;;6.05;3.92;;;;;;;2.17;80.55;98356.84;4970513;28;102849;-67
2023/11/26 01:16:51;;;;;;;5.07;3.47;;;;;;;2.20;80.24;98361.81;4981632;28;104383;-66
2023/11/26 01:19:20;;;;;;;5.45;3.55;;;;;;;2.18;80.31;98368.97;4964741;28;103450;-67
2023/11/26 01:21:48;;;;;;;6.88;4.47;;;;;;;2.27;80.12;98365.63;4959845;28;102651;-66
2023/11/26 01:24:17;;;;;;;6.60;3.85;;;;;;;2.30;79.92;98367.97;4982055;28;103021;-66
2023/11/26 01:26:45;;;;;;;6.72;3.78;;;;;;;2.36;79.84;98384.94;4971733;28;103830;-66
2023/11/26 01:29:16;;;;;;;7.40;4.38;;;;;;;2.32;79.93;98381.75;4974891;28;103277;-66
2023/11/26 01:31:44;;;;;;;5.93;3.85;;;;;;;2.28;79.52;98382.94;4961415;28;102939;-67
2023/11/26 01:34:14;;;;;;;6.32;3.95;;;;;;;2.29;79.92;98387.22;4981000;28;104979;-66
2023/11/26 01:36:42;;;;;;;6.38;4.30;;;;;;;2.20;79.88;98403.63;4965033;28;103245;-66
2023/11/26 01:39:10;;;;;;;8.30;4.80;;;;;;;2.20;80.03;98395.78;4984404;28;102648;-67
2023/11/26 01:41:41;;;;;;;6.50;3.72;;;;;;;2.20;79.83;98395.78;4964980;28;102665;-66
2023/11/26 01:44:10;;;;;;;12.20;4.88;;;;;;;2.08;80.46;98401.03;4985281;28;103039;-66
2023/11/26 01:46:38;;;;;;;6.57;3.63;;;;;;;2.17;80.20;98394.25;4968097;28;103306;-66
2023/11/26 01:49:12;;;;;;;;;;;;;;;2.04;80.18;98399.63;4984852;28;103138;-66
2023/11/26 01:51:41;;;;;;;4.47;3.17;;;;;;;2.15;79.99;98407.44;4969044;28;102679;-66
2023/11/26 01:54:12;;;;;;;7.18;4.07;;;;;;;2.09;80.15;98401.88;4981155;28;103915;-66
2023/11/26 01:56:42;;;;;;;7.55;4.00;;;;;;;2.17;79.91;98409.94;4987917;28;103140;-66
2023/11/26 01:59:10;;;;;;;5.53;3.75;;;;;;;2.06;80.16;98408.19;4972877;28;103132;-66
2023/11/26 02:01:40;;;;;;;6.55;4.20;;;;;;;2.18;79.55;98408.16;4978132;28;102679;-66
2023/11/26 02:04:09;;;;;;;5.88;3.55;;;;;;;2.21;79.24;98413.13;4963319;28;103154;-67
2023/11/26 02:06:37;;;;;;;5.65;3.15;;;;;;;2.23;79.67;98416.47;4980059;28;103236;-66
2023/11/26 02:09:06;;;;;;;4.65;3.30;;;;;;;2.25;79.24;98411.94;4989633;28;103282;-67
2023/11/26 02:11:34;;;;;;;5.40;3.88;;;;;;;2.24;78.67;98415.50;4967842;28;103121;-67
2023/11/26 02:14:04;;;;;;;6.22;3.22;;;;;;;2.10;79.44;98414.81;4968334;28;103681;-67
2023/11/26 02:16:32;;;;;;;4.95;2.95;;;;;;;2.09;79.16;98417.56;4981600;28;103238;-67
2023/11/26 02:19:01;;;;;;;4.80;3.03;;;;;;;2.12;79.54;98418.16;4963019;28;103258;-66
2023/11/26 02:21:29;;;;;;;6.00;3.30;;;;;;;2.10;79.67;98420.03;4983709;28;102928;-66
2023/11/26 02:23:57;;;;;;;4.85;3.13;;;;;;;2.10;79.00;98424.44;4967017;28;102723;-67
2023/11/26 02:26:27;;;;;;;3.63;2.80;;;;;;;2.08;78.84;98421.94;4985109;28;104493;-66
2023/11/26 02:28:55;;;;;;;5.88;3.45;;;;;;;2.08;78.47;98421.13;4964357;28;103392;-66
2023/11/26 02:31:23;;;;;;;4.63;2.60;;;;;;;1.98;78.27;98423.63;4964937;28;103295;-66
2023/11/26 02:33:51;;;;;;;4.95;3.00;;;;;;;2.00;78.47;98426.94;4989022;28;103220;-67
2023/11/26 02:36:25;;;;;;;5.18;2.90;;;;;;;1.97;78.72;98424.56;4991200;28;103242;-67
2023/11/26 02:38:55;;;;;;;6.22;3.70;;;;;;;1.94;79.14;98425.66;4968127;28;104465;-67
2023/11/26 02:41:26;;;;;;;5.28;3.25;;;;;;;1.95;78.70;98436.91;4981822;28;102674;-67
2023/11/26 02:43:55;;;;;;;6.65;2.85;;;;;;;1.97;78.54;98427.19;4961596;28;102596;-67
2023/11/26 02:46:23;;;;;;;5.32;2.97;;;;;;;1.99;78.22;98436.56;4965838;28;103937;-67
2023/11/26 02:48:51;;;;;;;4.93;2.95;;;;;;;1.96;78.48;98433.34;4981571;28;103239;-67
2023/11/26 02:51:19;;;;;;;4.35;3.00;;;;;;;1.95;78.10;98427.31;4967200;28;102800;-67
2023/11/26 02:53:48;;;;;;;6.57;3.05;;;;;;;1.97;78.79;98437.63;4978015;28;102648;-67
2023/11/26 02:56:16;;;;;;;6.03;2.85;;;;;;;1.96;78.41;98438.56;4971949;28;103305;-67
2023/11/26 02:58:46;;;;;;;10.77;5.47;;;;;;;1.91;78.33;98436.34;4979898;28;103170;-66
2023/11/26 03:01:19;;;;;;;5.82;3.72;;;;;;;1.89;79.01;98432.19;4966844;28;103171;-66
2023/11/26 03:03:47;;;;;;;7.53;3.90;;;;;;;1.92;79.07;98439.78;4965582;28;102861;-67
2023/11/26 03:06:22;;;;;;;8.45;4.70;;;;;;;1.97;78.99;98441.06;4964073;28;103770;-67
2023/11/26 03:08:59;;;;;;;8.75;4.72;;;;;;;1.98;78.77;98436.69;4966114;28;103313;-67
2023/11/26 03:14:16;;;;;;;11.63;6.10;;;;;;;1.98;79.40;98436.69;4979154;28;104245;-67
2023/11/26 03:16:46;;;;;;;8.32;4.63;;;;;;;1.98;79.52;98441.91;4972607;28;103939;-66
2023/11/26 03:19:14;;;;;;;7.05;4.00;;;;;;;1.98;78.98;98447.13;4980445;28;103221;-66
2023/11/26 03:21:44;;;;;;;5.60;3.10;;;;;;;2.06;79.88;98443.94;4966254;28;102712;-67
2023/11/26 03:24:16;;;;;;;6.07;3.45;;;;;;;2.09;79.15;98444.50;4961311;28;104014;-66
2023/11/26 03:26:45;;;;;;;5.57;3.38;;;;;;;2.00;78.62;98440.00;4984537;28;103248;-66
2023/11/26 03:29:16;;;;;;;4.47;2.97;;;;;;;1.98;79.17;98439.31;4981456;28;103059;-66
2023/11/26 03:31:44;;;;;;;7.78;3.90;;;;;;;1.99;79.48;98440.94;4982766;28;102666;-66
2023/11/26 03:34:13;;;;;;;4.75;3.00;;;;;;;1.94;78.91;98443.94;4969723;28;103651;-67
2023/11/26 03:36:41;;;;;;;5.95;3.20;;;;;;;1.99;79.27;98448.78;4966224;28;103227;-66
2023/11/26 03:39:12;;;;;;;5.07;2.90;;;;;;;2.01;79.55;98436.44;4985066;28;103273;-67
2023/11/26 03:41:40;;;;;;;4.32;2.60;;;;;;;1.97;79.51;98435.84;4960852;28;102707;-67
2023/11/26 03:44:08;;;;;;;4.20;2.67;;;;;;;2.02;79.41;98430.28;4971655;28;104659;-67
2023/11/26 03:46:39;;;;;;;4.72;2.10;;;;;;;2.08;79.80;98440.22;4985715;28;104400;-67
2023/11/26 03:49:08;;;;;;;4.40;2.67;;;;;;;2.10;79.16;98434.91;4985701;28;103371;-66
2023/11/26 03:51:35;;;;;;;4.15;2.58;;;;;;;2.08;79.40;98432.38;4983718;28;102650;-66
2023/11/26 03:54:06;;;;;;;4.47;2.58;;;;;;;2.08;79.41;98437.59;4964806;28;102583;-66
2023/11/26 03:56:34;;;;;;;6.13;2.75;;;;;;;2.10;78.72;98438.31;4978804;28;104167;-66
2023/11/26 03:59:03;;;;;;;5.90;2.80;;;;;;;2.05;78.87;98439.66;4983108;28;103055;-66
2023/11/26 04:01:31;;;;;;;3.97;1.98;;;;;;;2.07;79.12;98440.34;4980816;28;103081;-66
2023/11/26 04:04:01;;;;;;;4.25;2.30;;;;;;;2.09;78.92;98441.88;4984297;28;102783;-66
2023/11/26 04:06:32;;;;;;;5.38;2.15;;;;;;;2.03;79.54;98439.78;4957304;28;104093;-66
2023/11/26 04:09:00;;;;;;;6.07;2.85;;;;;;;2.06;79.26;98444.75;4961398;28;104280;-66
2023/11/26 04:11:28;;;;;;;5.28;3.08;;;;;;;2.10;79.54;98440.13;4980420;28;102872;-66
2023/11/26 04:13:56;;;;;;;5.22;2.95;;;;;;;2.02;78.80;98448.56;4986200;28;103096;-66
2023/11/26 04:16:26;;;;;;;3.05;2.00;;;;;;;1.97;79.84;98442.84;4959773;28;103325;-66
2023/11/26 04:18:56;;;;;;;3.10;1.95;;;;;;;1.97;79.87;98446.28;4964433;28;103484;-67
2023/11/26 04:21:25;;;;;;;4.63;2.10;;;;;;;1.97;79.77;98446.28;4975166;28;102673;-66
2023/11/26 04:23:53;;;;;;;3.78;2.00;;;;;;;2.01;80.27;98446.06;4979177;28;104181;-67
2023/11/26 04:26:24;;;;;;;3.35;1.90;;;;;;;2.07;80.34;98454.25;4975503;28;104425;-66
2023/11/26 04:29:11;;;;;;;4.03;2.00;;;;;;;2.14;80.33;98455.41;4962235;28;103209;-66
2023/11/26 04:31:39;;;;;;;3.40;2.13;;;;;;;2.08;79.90;98457.69;4979256;28;102685;-66
2023/11/26 04:34:10;;;;;;;4.40;2.30;;;;;;;2.12;79.84;98457.34;4983556;28;102914;-66
2023/11/26 04:36:39;;;;;;;5.43;2.15;;;;;;;2.15;79.62;98471.94;4981266;28;104345;-66
2023/11/26 04:39:08;;;;;;;3.30;1.85;;;;;;;2.17;79.59;98472.63;4980214;28;103257;-66
2023/11/26 04:41:36;;;;;;;3.22;2.00;;;;;;;2.19;79.65;98475.97;4960375;28;102697;-66
2023/11/26 04:44:04;;;;;;;2.88;1.83;;;;;;;2.19;79.49;98486.44;4976081;28;102819;-67
2023/11/26 04:46:33;;;;;;;3.38;2.20;;;;;;;2.21;79.18;98486.31;4982777;28;103237;-66
2023/11/26 04:49:01;;;;;;;2.70;1.70;;;;;;;2.22;79.67;98490.59;4963097;28;103234;-66
2023/11/26 04:51:35;;;;;;;5.15;2.65;;;;;;;2.26;79.18;98499.84;4960258;28;102859;-66
2023/11/26 04:54:09;;;;;;;3.67;2.00;;;;;;;2.23;79.34;98498.28;4983910;28;102630;-67
2023/11/26 04:56:37;;;;;;;4.30;2.33;;;;;;;2.14;79.30;98494.63;4977518;28;104001;-67
2023/11/26 04:59:06;;;;;;;3.78;2.40;;;;;;;2.12;79.56;98500.91;4978701;28;103013;-67
2023/11/26 05:01:35;;;;;;;3.30;1.95;;;;;;;2.10;79.28;98501.03;4974421;28;102893;-66
2023/11/26 05:04:04;;;;;;;2.72;1.70;;;;;;;2.03;79.61;98497.25;4981390;28;102664;-66
2023/11/26 05:06:32;;;;;;;3.28;1.92;;;;;;;2.07;79.31;98508.28;4987752;28;103223;-66
2023/11/26 05:09:00;;;;;;;3.53;1.80;;;;;;;2.02;78.99;98511.25;4982872;28;103244;-66
2023/11/26 05:11:29;;;;;;;4.72;2.40;;;;;;;1.95;78.70;98517.88;4983995;28;102692;-66
2023/11/26 05:13:59;;;;;;;2.97;1.80;;;;;;;1.94;79.19;98524.06;4983561;28;103950;-66
2023/11/26 05:16:27;;;;;;;5.80;2.47;;;;;;;1.83;79.25;98522.25;4969359;28;104280;-66
2023/11/26 05:18:55;;;;;;;3.70;1.90;;;;;;;1.86;79.09;98531.66;4969709;28;102951;-65
2023/11/26 05:21:28;;;;;;;5.55;2.42;;;;;;;1.90;78.92;98530.47;4979272;28;102899;-66
2023/11/26 05:23:56;;;;;;;3.83;1.95;;;;;;;1.89;79.76;98527.03;4989571;28;102752;-66
2023/11/26 05:26:26;;;;;;;4.85;1.95;;;;;;;1.88;79.42;98529.75;4988149;28;103854;-66
2023/11/26 05:28:56;;;;;;;4.15;1.90;;;;;;;1.95;79.00;98530.94;4986861;28;103197;-66
2023/11/26 05:31:27;;;;;;;3.53;1.85;;;;;;;1.98;79.29;98522.88;4983191;28;103075;-66
2023/11/26 05:33:55;;;;;;;2.97;1.73;;;;;;;1.99;79.71;98529.75;4984447;28;103977;-66
2023/11/26 05:36:25;;;;;;;3.53;1.60;;;;;;;2.01;79.54;98525.25;4983545;28;102676;-66
2023/11/26 05:38:53;;;;;;;3.33;2.10;;;;;;;1.94;78.49;98521.44;4979010;28;103260;-66
2023/11/26 05:41:25;;;;;;;4.90;1.83;;;;;;;1.81;79.72;98532.84;4966442;28;102756;-65
2023/11/26 05:43:57;;;;;;;3.27;1.83;;;;;;;1.84;79.69;98531.78;4986042;28;102889;-66
2023/11/26 05:46:25;;;;;;;2.45;1.60;;;;;;;1.94;79.66;98535.34;4982819;28;104443;-66
2023/11/26 05:48:53;;;;;;;3.85;2.28;;;;;;;1.99;79.29;98534.97;4982915;28;103257;-66
2023/11/26 05:51:22;;;;;;;3.00;1.67;;;;;;;1.93;79.57;98540.69;4987860;28;102602;-66
2023/11/26 05:53:50;;;;;;;3.33;1.92;;;;;;;1.95;79.45;98538.78;4981607;28;104176;-65
2023/11/26 05:56:17;;;;;;;8.98;2.70;;;;;;;1.76;79.50;98537.56;4962704;28;103909;-66
2023/11/26 05:58:46;;;;;;;4.38;1.80;;;;;;;1.73;79.82;98543.03;4981875;28;103007;-66
2023/11/26 06:01:22;;;;;;;3.45;1.92;;;;;;;1.87;80.10;98551.59;4983468;28;103099;-66
2023/11/26 06:03:50;;;;;;;4.30;2.30;;;;;;;1.94;79.70;98551.03;4983230;28;102736;-66
2023/11/26 06:06:17;;;;;;;2.97;1.85;;;;;;;1.93;79.86;98551.16;4983987;28;103996;-66
2023/11/26 06:08:46;;;;;;;4.75;2.47;;;;;;;2.00;79.39;98549.72;4981253;28;103229;-66
2023/11/26 06:11:14;;;;;;;5.43;2.30;;;;;;;2.01;79.14;98561.81;4980085;28;102578;-66
2023/11/26 06:13:42;;;;;;;3.65;2.10;;;;;;;1.99;78.74;98550.66;4984439;28;102711;-67
2023/11/26 06:16:10;;;;;;;4.70;2.47;;;;;;;1.88;78.69;98555.88;4982991;28;103088;-66
2023/11/26 06:18:39;;;;;;;3.70;2.13;;;;;;;1.94;78.72;98551.03;4978003;28;103215;-66
2023/11/26 06:21:08;;;;;;;4.13;2.10;;;;;;;1.93;79.02;98556.38;4963193;28;102676;-66
2023/11/26 06:23:35;;;;;;;3.28;1.92;;;;;;;1.95;78.62;98557.06;4986411;28;103900;-67
2023/11/26 06:26:06;;;;;;;4.13;1.85;;;;;;;1.98;78.90;98560.28;4977320;28;103675;-66
2023/11/26 06:28:34;;;;;;;3.28;1.77;;;;;;;1.97;78.81;98552.56;4963496;28;103046;-66
2023/11/26 06:31:02;;;;;;;2.55;1.60;;;;;;;2.05;78.66;98558.03;4982188;28;102795;-66
2023/11/26 06:33:30;;;;;;;3.05;1.95;;;;;;;2.09;78.48;98559.44;4978412;28;104132;-66
2023/11/26 06:36:00;;;;;;;5.72;2.05;;;;;;;2.10;77.95;98558.50;4980928;28;103241;-66
2023/11/26 06:38:28;;;;;;;4.07;2.03;;;;;;;2.10;78.38;98563.72;4985624;28;102987;-66
2023/11/26 06:40:56;;;;;;;2.70;1.83;;;;;;;2.14;78.30;98562.53;4967230;28;102652;-66
2023/11/26 06:43:25;;;;;;;3.13;1.83;;;;;;;2.11;78.49;98557.56;4982852;28;102696;-66
2023/11/26 06:45:53;;;;;;;4.63;2.13;;;;;;;2.10;78.28;98566.34;4980577;28;103181;-66
2023/11/26 06:48:21;;;;;;;5.07;2.60;;;;;;;2.11;78.24;98578.47;4981641;28;103261;-66
2023/11/26 06:50:49;;;;;;;2.60;1.70;;;;;;;2.19;78.71;98571.81;4976791;28;102780;-66
2023/11/26 06:53:19;;;;;;;5.07;2.20;;;;;;;2.24;78.28;98577.50;4981139;28;102617;-66
2023/11/26 06:55:47;;;;;;;3.35;1.75;;;;;;;2.26;77.65;98573.00;4981922;28;102637;-67
2023/11/26 06:58:15;;;;;;;3.28;2.00;;;;;;;2.26;77.83;98575.63;4979213;28;103034;-68
2023/11/26 07:00:43;;;;;;;3.88;2.13;;;;;;;2.24;78.04;98577.50;4962449;28;102767;-67
2023/11/26 07:03:11;;;;;;;4.07;2.17;;;;;;;2.32;78.00;98583.00;4983407;28;102725;-67
2023/11/26 07:05:42;;;;;;;2.50;1.70;;;;;;;2.39;78.57;98592.03;4984535;28;105350;-67
2023/11/26 07:08:10;;;;;;;6.22;2.10;;;;;;;2.41;78.61;98595.34;4980230;28;103235;-67
2023/11/26 07:10:39;;;;;;;6.70;2.70;;;;;;;2.41;77.66;98592.75;4982918;28;102871;-68
2023/11/26 07:13:08;;;;;;;4.90;2.50;;;;;;;2.39;78.04;98586.78;4985128;28;104419;-67
2023/11/26 07:15:36;;;;;;;7.10;2.70;;;;;;;2.40;78.42;98592.88;4978883;28;104015;-68
2023/11/26 07:18:06;;;;;;;4.03;2.33;;;;;;;2.46;78.59;98603.69;4982883;28;103501;-68
2023/11/26 07:20:37;;;;;;;4.00;2.40;;;;;;;2.35;78.54;98608.06;4987037;28;102661;-68
2023/11/26 07:23:07;;;;;;;6.80;3.10;;;;;;;2.40;79.00;98604.16;4989666;28;103529;-67
2023/11/26 07:25:37;;;;;;;7.72;2.35;;;;;;;2.36;79.06;98607.09;4984332;28;104180;-67
2023/11/26 07:28:11;;;;;;;5.43;3.33;;;;;;;2.38;78.62;98613.06;4987480;28;103077;-67
2023/11/26 07:30:40;;;;;;;4.05;2.30;;;;;;;2.47;78.69;98612.34;4987721;28;102652;-67
2023/11/26 07:33:09;;;;;;;7.00;2.97;;;;;;;2.44;78.61;98620.44;4978921;28;102701;-67
2023/11/26 07:35:38;;;;;;;5.35;2.88;;;;;;;2.55;78.21;98616.97;4980807;28;103575;-67
2023/11/26 07:38:11;;;;;;;5.97;3.72;;;;;;;2.52;77.78;98632.91;4985335;28;103284;-67
2023/11/26 07:40:45;;;;;;;4.85;2.97;;;;;;;2.63;78.23;98631.13;4976773;28;102679;-66
2023/11/26 07:43:14;;;;;;;6.95;3.13;;;;;;;2.70;78.40;98631.47;4980542;28;102685;-67
2023/11/26 07:45:43;;;;;;;5.15;2.90;;;;;;;2.65;78.14;98628.41;4985136;28;103437;-68
2023/11/26 07:48:11;;;;;;;4.18;2.72;;;;;;;2.74;78.22;98627.66;4959055;28;103423;-68
2023/11/26 07:50:39;;;;;;;4.82;2.40;;;;;;;2.81;78.25;98630.63;4964507;28;103101;-67
2023/11/26 07:53:07;;;;;;;5.57;2.90;;;;;;;2.88;78.17;98633.59;4978287;28;102608;-70
2023/11/26 07:55:36;;;;;;;3.92;2.40;;;;;;;2.92;78.12;98635.00;4978902;28;104305;-68
2023/11/26 07:58:05;;;;;;;6.45;3.35;;;;;;;2.96;77.82;98631.19;4979740;28;103634;-67
2023/11/26 08:00:36;;;;;;;9.18;3.67;;;;;;;2.98;78.23;98634.53;4975718;28;102961;-68
2023/11/26 08:03:07;;;;;;;6.75;3.80;;;;;;;2.88;78.25;98644.06;4978224;28;103862;-67
2023/11/26 08:05:37;;;;;;;6.05;2.47;;;;;;;2.90;78.56;98635.13;4983762;28;103136;-67
2023/11/26 08:08:06;;;;;;;3.90;2.58;;;;;;;2.94;78.39;98640.97;4964714;28;103228;-67
2023/11/26 08:10:34;;;;;;;7.07;4.35;;;;;;;2.98;78.44;98645.00;4982452;28;102772;-66
2023/11/26 08:13:02;;;;;;;5.43;2.83;;;;;;;2.99;78.20;98644.06;4985359;28;102660;-66
2023/11/26 08:15:31;;;;;;;5.10;3.17;;;;;;;3.07;78.36;98644.28;4980721;28;103044;-66
2023/11/26 08:18:00;;;;;;;5.47;3.55;;;;;;;3.09;77.87;98652.84;4987075;28;103007;-65
2023/11/26 08:20:31;;;;;;;5.85;3.30;;;;;;;3.10;78.19;98646.63;4962507;28;102746;-66
2023/11/26 08:23:01;;;;;;;5.00;3.50;;;;;;;3.20;78.13;98648.56;4985149;28;102731;-65
2023/11/26 08:25:33;;;;;;;4.30;2.53;;;;;;;3.09;78.05;98650.22;4986397;28;103362;-66
2023/11/26 08:28:02;;;;;;;4.22;2.80;;;;;;;3.20;78.15;98654.59;4958829;28;103394;-66
2023/11/26 08:30:39;;;;;;;7.80;4.10;;;;;;;3.19;77.70;98658.16;4961721;28;102596;-65
2023/11/26 08:33:10;;;;;;;10.52;3.88;;;;;;;3.20;77.67;98643.31;4968913;28;103262;-65
2023/11/26 08:35:41;;;;;;;6.70;3.70;;;;;;;3.21;77.61;98650.19;4981075;28;103215;-66
2023/11/26 08:38:10;;;;;;;6.68;3.40;;;;;;;3.25;77.83;98643.75;4982400;28;103249;-66
2023/11/26 08:40:41;;;;;;;6.82;3.95;;;;;;;3.31;78.08;98643.28;4977294;28;102698;-65
2023/11/26 08:43:13;;;;;;;6.60;4.22;;;;;;;3.28;77.20;98652.19;4973054;28;102604;-65
2023/11/26 08:45:41;;;;;;;5.68;3.80;;;;;;;3.34;78.08;98634.34;4984192;28;103183;-65
2023/11/26 08:48:13;;;;;;;7.97;3.30;;;;;;;3.44;77.74;98630.84;4982229;28;102969;-66
2023/11/26 08:50:41;;;;;;;6.25;4.03;;;;;;;3.54;77.08;98630.94;4982456;28;102613;-66
2023/11/26 08:53:12;;;;;;;8.05;4.00;;;;;;;3.53;77.00;98634.50;4980294;28;102715;-66
2023/11/26 08:55:40;;;;;;;6.45;3.80;;;;;;;3.52;77.07;98634.63;4977745;28;103377;-65
2023/11/26 08:58:14;;;;;;;7.88;4.20;;;;;;;3.61;77.08;98641.75;4982268;28;103275;-65
2023/11/26 09:00:42;;;;;;;7.10;3.97;;;;;;;3.62;76.69;98638.19;4979057;28;103141;-65
2023/11/26 09:03:12;;;;;;;9.05;4.55;;;;;;;3.52;76.91;98647.75;4983704;28;102758;-66
2023/11/26 09:05:40;;;;;;;10.02;4.53;;;;;;;3.61;76.73;98647.00;4958820;28;104261;-65
2023/11/26 09:08:09;;;;;;;6.60;4.00;;;;;;;3.74;76.21;98647.63;4977548;28;102596;-66
2023/11/26 09:10:37;;;;;;;8.55;4.45;;;;;;;3.74;76.49;98649.44;4966055;28;102678;-67
2023/11/26 09:13:07;;;;;;;10.80;6.18;;;;;;;3.84;75.68;98652.97;4977446;28;104428;-66
2023/11/26 09:15:40;;;;;;;8.32;4.60;;;;;;;3.89;76.22;98656.03;4983813;28;104013;-65
2023/11/26 09:18:08;;;;;;;7.55;4.13;;;;;;;3.96;75.60;98658.97;4982128;28;103200;-66
2023/11/26 09:20:38;;;;;;;7.50;3.67;;;;;;;3.97;75.91;98655.41;4969334;28;102692;-66
2023/11/26 09:23:07;;;;;;;6.35;4.13;;;;;;;4.05;75.77;98655.59;4983501;28;103124;-66
2023/11/26 09:25:37;;;;;;;7.45;4.45;;;;;;;4.10;75.54;98653.44;4961138;28;104150;-65
2023/11/26 09:28:07;;;;;;;7.68;4.68;;;;;;;4.04;75.46;98663.59;4981281;28;103263;-67
2023/11/26 09:30:36;;;;;;;8.15;4.97;;;;;;;4.01;76.01;98661.22;4977421;28;102600;-66
2023/11/26 09:33:04;;;;;;;7.85;4.20;;;;;;;4.06;75.23;98665.13;4961579;28;102919;-67
2023/11/26 09:35:32;;;;;;;5.40;3.63;;;;;;;4.19;75.56;98666.72;4982057;28;103021;-66
2023/11/26 09:38:02;;;;;;;7.72;5.20;;;;;;;4.22;75.10;98666.44;4970650;28;104240;-66
2023/11/26 09:40:30;;;;;;;6.68;4.20;;;;;;;4.32;75.31;98668.19;4960543;28;102751;-65
2023/11/26 09:42:58;;;;;;;9.82;5.68;;;;;;;4.26;75.43;98662.63;4982645;28;103172;-65
2023/11/26 09:45:26;;;;;;;5.75;3.90;;;;;;;4.24;75.02;98669.78;4981613;28;103279;-66
2023/11/26 09:47:55;;;;;;;8.43;5.10;;;;;;;4.15;74.64;98669.59;4965546;28;103233;-65
2023/11/26 09:50:23;;;;;;;7.57;4.47;;;;;;;4.21;75.48;98664.81;4978874;28;103030;-64
2023/11/26 09:52:52;;;;;;;6.82;4.00;;;;;;;4.12;75.21;98664.59;4979767;28;102700;-65
2023/11/26 09:55:24;;;;;;;5.35;3.58;;;;;;;4.27;75.04;98664.28;4980591;28;103999;-63
2023/11/26 09:57:52;;;;;;;7.07;4.13;;;;;;;4.40;75.31;98666.69;4979909;28;103126;-63
2023/11/26 10:00:21;;;;;;;6.53;3.85;;;;;;;4.34;74.46;98668.06;4981530;28;102972;-68
2023/11/26 10:03:00;;;;;;;7.15;4.15;;;;;;;4.50;74.67;98657.09;4982057;28;102736;-64
2023/11/26 10:05:32;;;;;;;8.43;3.42;;;;;;;4.44;74.93;98660.22;4979179;28;103831;-64
2023/11/26 10:08:03;;;;;;;7.32;4.45;;;;;;;4.55;74.63;98654.09;4981425;28;103254;-65
2023/11/26 10:10:49;;;;;;;6.10;3.72;;;;;;;4.57;74.67;98660.03;4983302;28;102650;-64
2023/11/26 10:13:17;;;;;;;5.32;3.90;;;;;;;4.53;74.94;98645.50;4971548;28;103629;-64
2023/11/26 10:15:45;;;;;;;8.88;4.32;;;;;;;4.55;75.28;98651.47;4967999;28;104352;-66
2023/11/26 10:18:15;;;;;;;8.57;4.88;;;;;;;4.64;75.04;98650.69;4979695;28;103185;-66
2023/11/26 10:20:45;;;;;;;6.25;4.32;;;;;;;4.74;75.73;98648.09;4974732;28;102887;-66
2023/11/26 10:23:14;;;;;;;7.43;4.43;;;;;;;4.75;75.11;98653.19;4959289;28;102670;-64
2023/11/26 10:25:44;;;;;;;9.07;3.97;;;;;;;4.58;74.45;98649.41;4975757;28;104179;-64
2023/11/26 10:28:14;;;;;;;6.47;4.10;;;;;;;4.66;73.89;98646.13;4978998;28;103209;-64
2023/11/26 10:30:42;;;;;;;5.43;3.45;;;;;;;4.64;73.78;98638.38;4971503;28;102873;-64
2023/11/26 10:33:12;;;;;;;6.57;3.28;;;;;;;4.82;73.81;98633.34;4961059;28;103001;-64
2023/11/26 10:35:46;;;;;;;9.57;3.50;;;;;;;4.88;73.17;98626.72;4978206;28;103281;-64
2023/11/26 10:38:14;;;;;;;7.28;4.05;;;;;;;4.96;72.34;98620.81;4961957;28;103290;-64
2023/11/26 10:40:44;;;;;;;9.07;4.05;;;;;;;4.95;72.65;98616.53;4981445;28;102719;-64
2023/11/26 10:43:13;;;;;;;6.50;3.97;;;;;;;5.03;72.79;98618.47;4981680;28;102691;-64
2023/11/26 10:45:43;;;;;;;6.40;3.90;;;;;;;4.81;72.33;98618.56;4971243;28;104687;-63
2023/11/26 10:48:14;;;;;;;5.13;3.58;;;;;;;4.97;73.13;98611.97;4966753;28;104175;-64
2023/11/26 10:50:57;;;;;;;5.70;3.38;;;;;;;5.19;72.28;98610.94;4978775;28;103462;-63
2023/11/26 10:53:39;;;;;;;6.47;3.58;;;;;;;5.26;71.20;98604.16;4978721;28;103790;-63
2023/11/26 10:56:14;;;;;;;8.20;4.13;;;;;;;5.45;70.82;98613.84;4973596;28;103998;-63
2023/11/26 10:58:48;;;;;;;8.45;3.85;;;;;;;5.37;70.40;98611.09;4972622;28;103228;-63
2023/11/26 11:01:18;;;;;;;6.70;3.85;;;;;;;5.44;71.23;98609.56;4978487;28;102791;-62
2023/11/26 11:03:47;;;;;;;5.53;4.00;;;;;;;5.39;70.90;98609.13;4960761;28;102860;-63
2023/11/26 11:06:18;;;;;;;5.93;3.60;;;;;;;5.36;71.06;98596.28;4978508;28;103826;-63
2023/11/26 11:08:47;;;;;;;8.52;3.20;;;;;;;5.31;70.41;98606.38;4980548;28;103175;-63
2023/11/26 11:11:39;;;;;;;5.65;3.10;;;;;;;5.23;69.52;98598.38;4958278;28;102752;-63
2023/11/26 11:14:08;;;;;;;7.38;3.20;;;;;;;5.02;69.22;98598.44;4959756;28;105178;-65
2023/11/26 11:16:36;;;;;;;7.25;3.15;;;;;;;5.16;70.80;98603.31;4978991;28;102994;-63
2023/11/26 11:19:05;;;;;;;11.73;3.38;;;;;;;5.31;70.73;98599.31;4980145;28;103165;-64
2023/11/26 11:21:47;;;;;;;7.13;3.03;;;;;;;5.44;70.15;98596.44;4982634;28;102821;-63
2023/11/26 11:24:19;;;;;;;8.07;4.03;;;;;;;5.28;70.05;98590.91;4977227;28;103836;-63
2023/11/26 11:26:49;;;;;;;5.43;2.97;;;;;;;5.39;69.76;98587.31;4974677;28;103645;-64
2023/11/26 11:29:33;;;;;;;10.23;3.92;;;;;;;5.47;68.67;98590.88;4984534;28;103348;-63
2023/11/26 11:32:02;;;;;;;4.15;2.78;;;;;;;5.53;69.65;98592.16;4981286;28;102880;-63
2023/11/26 11:34:31;;;;;;;6.43;3.10;;;;;;;5.59;69.66;98596.00;4981042;28;102793;-63
2023/11/26 11:37:02;;;;;;;6.93;3.67;;;;;;;5.46;67.67;98594.50;4977675;28;103895;-63
2023/11/26 11:39:44;;;;;;;7.03;3.20;;;;;;;5.55;68.12;98594.63;4965607;28;103881;-64
2023/11/26 11:42:20;;;;;;;5.32;3.17;;;;;;;5.62;68.72;98593.09;4980765;28;103123;-63
2023/11/26 11:44:49;;;;;;;4.75;2.70;;;;;;;5.52;66.51;98595.75;4974126;28;102711;-63
2023/11/26 11:47:39;;;;;;;12.13;4.57;;;;;;;5.53;66.94;98593.94;4981258;28;103414;-64
2023/11/26 11:50:14;;;;;;;8.07;4.35;;;;;;;5.57;67.65;98595.34;4962432;28;104128;-64
2023/11/26 11:52:43;;;;;;;6.07;3.33;;;;;;;5.64;67.79;98596.44;4981914;28;102795;-65